Time;durP1;ratioP1;P1;durP2;ratioP2;P2;SDS_P1;SDS_P2;PMS_P1;PMS_P2;Temp;Humidity;BMP_temperature;BMP_pressure;BME280_temperature;BME280_humidity;BME280_pressure;Samples;Min_cycle;Max_cycle;Signal;HPM_P1;HPM_P2
2022/03/17 00:01:33;;;;;;;19.47;12.23;;;9.60;99.90;;;;;;5034515;28;20174;-66
2022/03/17 00:03:59;;;;;;;13.67;10.63;;;9.60;99.90;;;;;;5033798;28;20181;-65
2022/03/17 00:06:25;;;;;;;17.23;13.20;;;9.60;99.90;;;;;;5034293;28;20696;-66
2022/03/17 00:08:51;;;;;;;18.97;12.30;;;9.60;99.90;;;;;;5034143;28;20568;-68
2022/03/17 00:11:16;;;;;;;15.73;11.80;;;9.50;99.90;;;;;;5027700;28;20167;-66
2022/03/17 00:13:42;;;;;;;14.77;12.40;;;9.50;99.90;;;;;;5014034;28;20171;-68
2022/03/17 00:16:09;;;;;;;15.27;12.00;;;9.50;99.90;;;;;;5014232;28;20689;-68
2022/03/17 00:18:35;;;;;;;15.75;10.57;;;9.50;99.90;;;;;;5016292;28;20431;-66
2022/03/17 00:21:01;;;;;;;16.33;11.55;;;9.50;99.90;;;;;;5014876;28;20176;-67
2022/03/17 00:23:26;;;;;;;14.10;11.90;;;9.50;99.90;;;;;;5014410;28;20249;-67
2022/03/17 00:25:52;;;;;;;13.30;11.60;;;9.50;99.90;;;;;;5019588;28;20182;-66
2022/03/17 00:28:18;;;;;;;14.83;12.03;;;9.50;99.90;;;;;;5034545;28;20201;-67
2022/03/17 00:30:43;;;;;;;17.33;13.00;;;9.50;99.90;;;;;;5033960;28;20167;-66
2022/03/17 00:33:09;;;;;;;18.40;13.83;;;9.40;99.90;;;;;;5033477;28;20645;-66
2022/03/17 00:35:43;;;;;;;17.40;13.20;;;9.50;99.90;;;;;;5033515;28;20208;-65
2022/03/17 00:38:11;;;;;;;13.30;11.20;;;9.50;99.90;;;;;;5033709;28;20584;-66
2022/03/17 00:40:39;;;;;;;17.02;12.90;;;9.40;99.90;;;;;;5028405;28;20170;-67
2022/03/17 00:43:06;;;;;;;16.27;13.63;;;9.50;99.90;;;;;;5013526;28;20189;-69
2022/03/17 00:45:32;;;;;;;13.05;10.48;;;9.50;99.90;;;;;;5013782;28;20214;-67
2022/03/17 00:47:58;;;;;;;15.90;11.73;;;9.40;99.90;;;;;;5013585;28;20201;-67
2022/03/17 00:50:24;;;;;;;15.60;11.90;;;9.40;99.90;;;;;;5032300;28;20174;-67
2022/03/17 00:52:50;;;;;;;16.52;12.63;;;9.40;99.90;;;;;;5034146;28;20401;-68
2022/03/17 00:55:16;;;;;;;18.93;13.63;;;9.30;99.90;;;;;;5032961;28;20316;-66
2022/03/17 00:57:42;;;;;;;19.67;12.70;;;9.30;99.90;;;;;;5033487;28;20177;-67
2022/03/17 01:00:09;;;;;;;17.27;13.63;;;9.40;99.90;;;;;;5033265;28;20224;-68
2022/03/17 01:02:35;;;;;;;15.48;10.80;;;9.30;99.90;;;;;;5031798;28;20727;-67
2022/03/17 01:05:01;;;;;;;13.30;10.03;;;9.30;99.90;;;;;;5017093;28;20293;-66
2022/03/17 01:07:27;;;;;;;15.53;11.60;;;9.30;99.90;;;;;;5013395;28;20202;-66
2022/03/17 01:09:52;;;;;;;16.17;13.40;;;9.30;99.90;;;;;;5013547;28;20175;-67
2022/03/17 01:12:18;;;;;;;12.53;11.17;;;9.30;99.90;;;;;;5013505;28;20236;-67
2022/03/17 01:14:43;;;;;;;13.20;11.17;;;9.30;99.90;;;;;;5012864;28;20211;-64
2022/03/17 01:17:10;;;;;;;16.50;10.50;;;9.30;99.90;;;;;;5013288;28;20514;-66
2022/03/17 01:19:36;;;;;;;13.80;11.23;;;9.20;99.90;;;;;;5027092;28;20182;-66
2022/03/17 01:22:02;;;;;;;15.80;13.67;;;9.30;99.90;;;;;;5033131;28;20652;-66
2022/03/17 01:24:27;;;;;;;14.77;12.43;;;9.30;99.90;;;;;;5032502;28;20218;-67
2022/03/17 01:26:53;;;;;;;11.33;9.60;;;9.30;99.90;;;;;;5031313;28;20421;-66
2022/03/17 01:29:19;;;;;;;16.63;12.00;;;9.30;99.90;;;;;;5033047;28;20166;-65
2022/03/17 01:31:46;;;;;;;17.98;13.88;;;9.30;99.90;;;;;;5032917;28;20235;-67
2022/03/17 01:34:11;;;;;;;18.65;14.80;;;9.20;99.90;;;;;;5032553;28;20177;-65
2022/03/17 01:36:37;;;;;;;12.93;10.93;;;9.20;99.90;;;;;;5032967;28;20253;-63
2022/03/17 01:39:04;;;;;;;17.97;10.90;;;9.20;99.90;;;;;;5031374;28;20667;-66
2022/03/17 01:41:29;;;;;;;16.45;11.52;;;9.10;99.90;;;;;;5036127;28;20227;-65
2022/03/17 01:43:55;;;;;;;16.27;11.53;;;9.10;99.90;;;;;;5036368;28;20202;-67
2022/03/17 01:46:21;;;;;;;16.43;12.83;;;9.10;99.90;;;;;;5036491;28;20285;-67
2022/03/17 01:48:46;;;;;;;15.17;11.00;;;9.10;99.90;;;;;;5036517;28;20202;-66
2022/03/17 01:51:12;;;;;;;16.27;11.23;;;9.10;99.90;;;;;;5036798;28;20413;-68
2022/03/17 01:53:38;;;;;;;13.93;12.47;;;9.10;99.90;;;;;;5031055;28;20166;-67
2022/03/17 01:56:04;;;;;;;17.87;12.67;;;9.00;99.90;;;;;;5016793;28;20182;-65
2022/03/17 01:58:31;;;;;;;19.40;11.98;;;9.00;99.90;;;;;;5016773;28;20468;-67
2022/03/17 02:00:57;;;;;;;14.32;11.15;;;9.00;99.90;;;;;;5016835;28;20177;-68
2022/03/17 02:03:23;;;;;;;19.33;12.73;;;9.00;99.90;;;;;;5016218;28;20190;-66
2022/03/17 02:05:51;;;;;;;19.30;11.35;;;8.90;99.90;;;;;;5016551;28;20265;-67
2022/03/17 02:08:17;;;;;;;17.80;12.13;;;8.90;99.90;;;;;;5032920;28;20198;-65
2022/03/17 02:13:27;;;;;;;18.02;11.15;;;9.00;99.90;;;;;;5037408;28;20767;-67
2022/03/17 02:15:54;;;;;;;16.40;11.10;;;9.00;99.90;;;;;;5036256;28;20190;-68
2022/03/17 02:18:20;;;;;;;17.40;10.77;;;8.90;99.90;;;;;;5036192;28;20174;-67
2022/03/17 02:20:46;;;;;;;15.50;11.25;;;9.00;99.90;;;;;;5036137;28;20176;-65
2022/03/17 02:25:58;;;;;;;12.88;9.32;;;9.00;99.90;;;;;;5035955;28;20691;-66
2022/03/17 02:28:25;;;;;;;15.98;11.07;;;8.90;99.90;;;;;;5035751;28;20228;-65
2022/03/17 02:30:51;;;;;;;17.65;13.20;;;9.00;99.90;;;;;;5035895;28;20525;-66
2022/03/17 02:33:17;;;;;;;17.03;12.90;;;9.00;99.90;;;;;;5035444;28;20170;-67
2022/03/17 02:35:43;;;;;;;16.47;10.73;;;8.90;99.90;;;;;;5033704;28;20190;-66
2022/03/17 02:38:14;;;;;;;14.30;9.75;;;8.90;99.90;;;;;;5016045;28;20167;-66
2022/03/17 02:40:42;;;;;;;16.73;11.73;;;9.00;99.90;;;;;;5016263;28;20178;-65
2022/03/17 02:43:08;;;;;;;13.88;9.52;;;8.90;99.90;;;;;;5015545;28;20176;-66
2022/03/17 02:45:35;;;;;;;15.55;11.10;;;9.00;99.90;;;;;;5015735;28;20189;-65
2022/03/17 02:48:01;;;;;;;20.45;13.40;;;9.00;99.90;;;;;;5014440;28;20206;-64
2022/03/17 02:50:27;;;;;;;14.45;10.15;;;8.90;99.90;;;;;;5015641;28;20170;-64
2022/03/17 02:52:52;;;;;;;14.10;11.23;;;8.90;99.90;;;;;;5035413;28;20211;-64
2022/03/17 02:55:18;;;;;;;15.70;12.30;;;8.90;99.90;;;;;;5033283;28;20190;-66
2022/03/17 02:57:45;;;;;;;17.13;12.73;;;8.90;99.90;;;;;;5035264;28;20166;-66
2022/03/17 03:00:12;;;;;;;15.63;10.45;;;8.90;99.90;;;;;;5035027;28;20185;-65
2022/03/17 03:02:38;;;;;;;18.45;12.48;;;8.90;99.90;;;;;;5035007;28;20186;-64
2022/03/17 03:05:06;;;;;;;18.00;12.10;;;8.90;99.90;;;;;;5034619;28;20205;-65
2022/03/17 03:07:32;;;;;;;17.42;10.80;;;8.90;99.90;;;;;;5034466;28;20209;-68
2022/03/17 03:09:58;;;;;;;16.55;11.70;;;8.80;99.90;;;;;;5035242;28;20647;-67
2022/03/17 03:12:23;;;;;;;15.10;10.57;;;8.80;99.90;;;;;;5035248;28;20245;-66
2022/03/17 03:14:50;;;;;;;13.83;11.37;;;8.80;99.90;;;;;;5034654;28;20185;-66
2022/03/17 03:17:16;;;;;;;16.65;11.30;;;8.80;99.90;;;;;;5034875;28;20416;-67
2022/03/17 03:19:42;;;;;;;18.80;12.27;;;8.80;99.90;;;;;;5034988;28;20166;-65
2022/03/17 03:22:08;;;;;;;16.30;11.83;;;8.80;99.90;;;;;;5018090;28;20243;-65
2022/03/17 03:24:36;;;;;;;14.70;10.82;;;8.90;99.90;;;;;;5034445;28;20433;-67
2022/03/17 03:27:02;;;;;;;18.13;12.75;;;8.90;99.90;;;;;;5033458;28;20182;-65
2022/03/17 03:29:29;;;;;;;18.42;13.43;;;8.80;99.90;;;;;;5034724;28;20170;-67
2022/03/17 03:31:58;;;;;;;12.20;9.65;;;8.90;99.90;;;;;;5034847;28;20166;-66
2022/03/17 03:34:24;;;;;;;21.35;12.85;;;8.90;99.90;;;;;;5041157;28;20197;-67
2022/03/17 03:39:36;;;;;;;13.75;10.43;;;8.90;99.90;;;;;;5014850;28;20666;-65
2022/03/17 03:42:03;;;;;;;15.05;11.43;;;8.80;99.90;;;;;;5014697;28;20175;-66
2022/03/17 03:44:29;;;;;;;13.40;9.18;;;8.80;99.90;;;;;;5014191;28;20237;-66
2022/03/17 03:46:55;;;;;;;18.50;11.80;;;8.80;99.90;;;;;;5014627;28;20174;-66
2022/03/17 03:49:21;;;;;;;18.45;13.95;;;8.80;99.90;;;;;;5014756;28;20174;-65
2022/03/17 03:51:47;;;;;;;13.80;10.97;;;8.80;99.90;;;;;;5034316;28;20158;-66
2022/03/17 03:54:13;;;;;;;17.45;12.18;;;8.80;99.90;;;;;;5034125;28;20397;-66
2022/03/17 03:56:51;;;;;;;16.50;12.57;;;8.70;99.90;;;;;;5034375;28;20162;-66
2022/03/17 03:59:21;;;;;;;18.27;13.23;;;8.70;99.90;;;;;;5034296;28;20166;-66
2022/03/17 04:01:57;;;;;;;14.57;11.43;;;8.70;99.90;;;;;;5033945;28;20181;-64
2022/03/17 04:04:24;;;;;;;17.65;11.57;;;8.80;99.90;;;;;;5030370;28;20200;-67
2022/03/17 04:06:51;;;;;;;22.50;15.20;;;8.80;99.90;;;;;;5028568;28;20183;-67
2022/03/17 04:09:20;;;;;;;14.30;10.85;;;8.70;99.90;;;;;;5034075;28;20173;-68
2022/03/17 04:11:46;;;;;;;16.75;12.43;;;8.70;99.90;;;;;;5034023;28;20185;-67
2022/03/17 04:14:13;;;;;;;16.23;11.95;;;8.70;99.90;;;;;;5033422;28;20213;-68
2022/03/17 04:16:40;;;;;;;15.13;11.43;;;8.70;99.90;;;;;;5033864;28;20624;-65
2022/03/17 04:19:06;;;;;;;16.50;12.80;;;8.70;99.90;;;;;;5032073;28;20645;-68
2022/03/17 04:21:32;;;;;;;10.77;9.67;;;8.70;99.90;;;;;;5033899;28;20162;-66
2022/03/17 04:24:01;;;;;;;15.80;10.88;;;8.80;99.90;;;;;;5033352;28;20409;-66
2022/03/17 04:26:27;;;;;;;15.55;11.68;;;8.70;99.90;;;;;;5032555;28;20212;-65
2022/03/17 04:28:53;;;;;;;13.27;10.60;;;8.70;99.90;;;;;;5033650;28;20648;-67
2022/03/17 04:31:22;;;;;;;18.97;12.20;;;8.70;99.90;;;;;;5033946;28;20201;-66
2022/03/17 04:33:49;;;;;;;14.77;10.55;;;8.70;99.90;;;;;;5025391;28;20213;-65
2022/03/17 04:36:15;;;;;;;15.77;12.05;;;8.70;99.90;;;;;;5013936;28;20205;-65
2022/03/17 04:38:42;;;;;;;16.65;12.07;;;8.70;99.90;;;;;;5013915;28;20205;-66
2022/03/17 04:41:09;;;;;;;17.77;10.48;;;8.60;99.90;;;;;;5013916;28;20178;-65
2022/03/17 04:43:35;;;;;;;17.05;11.25;;;8.60;99.90;;;;;;5013288;28;20214;-66
2022/03/17 04:46:01;;;;;;;15.70;12.13;;;8.60;99.90;;;;;;5013686;28;20222;-67
2022/03/17 04:48:27;;;;;;;16.17;11.33;;;8.60;99.90;;;;;;5018953;28;20460;-65
2022/03/17 04:50:53;;;;;;;17.93;12.27;;;8.60;99.90;;;;;;5033592;28;20400;-67
2022/03/17 04:53:29;;;;;;;15.80;11.30;;;8.50;99.90;;;;;;5033096;28;20412;-67
2022/03/17 04:56:16;;;;;;;17.70;11.40;;;8.50;99.90;;;;;;5033379;28;20178;-65
2022/03/17 04:58:42;;;;;;;19.60;12.00;;;8.60;99.90;;;;;;5029392;28;20181;-67
2022/03/17 05:01:10;;;;;;;14.45;10.63;;;8.50;99.90;;;;;;5032102;28;20174;-66
2022/03/17 05:03:37;;;;;;;17.00;10.88;;;8.50;99.90;;;;;;5027223;28;20564;-68
2022/03/17 05:06:03;;;;;;;23.67;14.95;;;8.60;99.90;;;;;;5033153;28;20214;-68
2022/03/17 05:08:29;;;;;;;14.02;11.30;;;8.50;99.90;;;;;;5042156;28;20595;-65
2022/03/17 05:10:55;;;;;;;14.97;12.60;;;8.50;99.90;;;;;;5033682;28;20181;-66
2022/03/17 05:13:22;;;;;;;20.17;13.38;;;8.50;99.90;;;;;;5032969;28;20410;-67
2022/03/17 05:15:49;;;;;;;16.88;11.68;;;8.50;99.90;;;;;;5035512;28;20194;-65
2022/03/17 05:18:15;;;;;;;15.40;11.60;;;8.50;99.90;;;;;;5028974;28;20185;-66
2022/03/17 05:20:41;;;;;;;15.70;11.80;;;8.50;99.90;;;;;;5017501;28;20170;-65
2022/03/17 05:23:08;;;;;;;15.00;10.48;;;8.50;99.90;;;;;;5016920;28;20414;-66
2022/03/17 05:25:34;;;;;;;15.13;11.57;;;8.50;99.90;;;;;;5017283;28;20182;-64
2022/03/17 05:28:00;;;;;;;13.02;9.98;;;8.60;99.90;;;;;;5015941;28;20674;-65
2022/03/17 05:30:26;;;;;;;16.90;12.47;;;8.50;99.90;;;;;;5017270;28;20253;-65
2022/03/17 05:32:52;;;;;;;17.87;11.90;;;8.60;99.90;;;;;;5023657;28;20174;-64
2022/03/17 05:35:18;;;;;;;16.23;10.48;;;8.50;99.90;;;;;;5035467;28;20428;-65
2022/03/17 05:37:44;;;;;;;13.80;10.03;;;8.50;99.90;;;;;;5017524;28;20502;-65
2022/03/17 05:40:15;;;;;;;14.60;10.33;;;8.50;99.90;;;;;;5016626;28;20452;-67
2022/03/17 05:42:55;;;;;;;15.80;9.63;;;8.50;99.90;;;;;;5016847;28;20190;-67
2022/03/17 05:45:22;;;;;;;15.95;11.65;;;8.60;99.90;;;;;;5017398;28;20199;-66
2022/03/17 05:47:50;;;;;;;14.95;10.75;;;8.50;99.90;;;;;;5016713;28;20198;-64
2022/03/17 05:50:18;;;;;;;13.93;11.25;;;8.50;99.90;;;;;;5016424;28;20612;-63
2022/03/17 05:52:44;;;;;;;17.77;11.73;;;8.50;99.90;;;;;;5016334;28;20193;-66
2022/03/17 05:55:11;;;;;;;15.80;10.70;;;8.50;99.90;;;;;;5016344;28;20619;-67
2022/03/17 05:57:39;;;;;;;16.45;11.73;;;8.50;99.90;;;;;;5016383;28;20179;-66
2022/03/17 06:00:07;;;;;;;15.65;10.30;;;8.50;99.90;;;;;;5033108;28;20212;-66
2022/03/17 06:02:37;;;;;;;17.80;11.25;;;8.50;99.90;;;;;;5032283;28;20247;-66
2022/03/17 06:05:04;;;;;;;14.13;11.15;;;8.50;99.90;;;;;;5035695;28;20317;-65
2022/03/17 06:07:40;;;;;;;16.50;11.43;;;8.50;99.90;;;;;;5036105;28;20268;-66
2022/03/17 06:10:08;;;;;;;22.23;13.82;;;8.60;99.90;;;;;;5036155;28;20181;-66
2022/03/17 06:12:34;;;;;;;16.77;9.65;;;8.60;99.90;;;;;;5034177;28;20659;-66
2022/03/17 06:15:00;;;;;;;13.47;9.93;;;8.60;99.90;;;;;;5014782;28;20203;-66
2022/03/17 06:17:39;;;;;;;14.33;10.60;;;8.60;99.90;;;;;;5013945;28;20495;-67
2022/03/17 06:20:07;;;;;;;19.15;11.18;;;8.70;99.90;;;;;;5014021;28;20259;-66
2022/03/17 06:22:33;;;;;;;16.75;9.63;;;8.70;99.90;;;;;;5013735;28;20178;-66
2022/03/17 06:24:58;;;;;;;15.00;11.07;;;8.70;99.90;;;;;;5013507;28;20198;-65
2022/03/17 06:27:25;;;;;;;16.27;12.20;;;8.70;99.90;;;;;;5013290;28;20210;-65
2022/03/17 06:29:50;;;;;;;15.05;12.65;;;8.70;99.90;;;;;;5034708;28;20178;-68
2022/03/17 06:32:16;;;;;;;16.07;10.97;;;8.70;99.90;;;;;;5035899;28;20687;-64
2022/03/17 06:34:42;;;;;;;14.70;12.18;;;8.70;99.90;;;;;;5035278;28;20228;-65
2022/03/17 06:37:09;;;;;;;17.80;12.20;;;8.80;99.90;;;;;;5032882;28;20174;-66
2022/03/17 06:39:34;;;;;;;14.35;10.90;;;8.80;99.90;;;;;;5035593;28;20223;-65
2022/03/17 06:42:00;;;;;;;15.03;10.73;;;8.80;99.90;;;;;;5035639;28;20252;-65
2022/03/17 06:44:26;;;;;;;15.50;11.63;;;8.80;99.90;;;;;;5016458;28;20206;-64
2022/03/17 06:46:51;;;;;;;14.20;10.00;;;8.80;99.90;;;;;;5015648;28;20171;-64
2022/03/17 06:49:17;;;;;;;14.43;11.23;;;8.80;99.90;;;;;;5015843;28;20540;-66
2022/03/17 06:51:42;;;;;;;13.77;12.37;;;8.80;99.90;;;;;;5015965;28;20177;-63
2022/03/17 06:54:08;;;;;;;13.50;10.87;;;8.90;99.90;;;;;;5015077;28;20170;-65
2022/03/17 06:56:33;;;;;;;16.37;9.83;;;8.90;99.90;;;;;;5015433;28;20229;-65
2022/03/17 06:58:59;;;;;;;15.90;11.83;;;9.00;99.90;;;;;;5025822;28;20697;-66
2022/03/17 07:01:25;;;;;;;13.00;11.03;;;9.10;99.90;;;;;;5032271;28;20193;-68
2022/03/17 07:03:50;;;;;;;16.63;11.67;;;9.10;99.90;;;;;;5034703;28;20190;-65
2022/03/17 07:06:16;;;;;;;17.40;11.50;;;9.20;99.90;;;;;;5035246;28;20186;-67
2022/03/17 07:08:42;;;;;;;11.20;9.53;;;9.20;99.90;;;;;;5034858;28;20591;-67
2022/03/17 07:11:07;;;;;;;13.70;9.07;;;9.30;99.90;;;;;;5034731;28;20641;-67
2022/03/17 07:13:33;;;;;;;14.23;10.40;;;9.30;99.90;;;;;;5019472;28;20181;-67
2022/03/17 07:16:02;;;;;;;12.07;10.50;;;9.40;99.90;;;;;;5014753;28;20190;-67
2022/03/17 07:18:28;;;;;;;15.45;10.10;;;9.40;99.90;;;;;;5014781;28;20178;-68
2022/03/17 07:20:57;;;;;;;16.67;10.02;;;9.50;99.90;;;;;;5016127;28;20186;-66
2022/03/17 07:23:23;;;;;;;15.60;10.48;;;9.50;99.90;;;;;;5034357;28;20258;-67
2022/03/17 07:25:49;;;;;;;15.83;11.50;;;9.60;99.90;;;;;;5034327;28;20351;-67
2022/03/17 07:28:15;;;;;;;11.87;9.33;;;9.60;99.90;;;;;;5019557;28;20464;-66
2022/03/17 07:30:41;;;;;;;14.18;11.18;;;9.70;99.90;;;;;;5014694;28;20637;-65
2022/03/17 07:33:07;;;;;;;15.15;11.10;;;9.70;99.90;;;;;;5014364;28;20225;-67
2022/03/17 07:35:33;;;;;;;14.97;10.87;;;9.80;99.90;;;;;;5014581;28;20194;-68
2022/03/17 07:37:59;;;;;;;17.27;11.93;;;9.80;99.90;;;;;;5013538;28;20575;-66
2022/03/17 07:40:26;;;;;;;15.98;11.32;;;9.90;99.90;;;;;;5014321;28;20179;-66
2022/03/17 07:42:52;;;;;;;13.52;9.55;;;9.90;99.90;;;;;;5025388;28;20177;-66
2022/03/17 07:45:18;;;;;;;19.70;11.50;;;9.90;99.90;;;;;;5016893;28;20293;-65
2022/03/17 07:47:48;;;;;;;18.10;11.53;;;9.90;99.90;;;;;;5014456;28;20492;-66
2022/03/17 07:50:14;;;;;;;16.15;10.80;;;10.00;99.90;;;;;;5014379;28;20772;-68
2022/03/17 07:52:40;;;;;;;17.23;12.23;;;10.10;99.90;;;;;;5014458;28;20576;-68
2022/03/17 07:55:07;;;;;;;16.00;12.27;;;10.20;99.90;;;;;;5013938;28;20182;-65
2022/03/17 07:57:37;;;;;;;15.85;12.07;;;10.20;99.90;;;;;;5027280;28;20265;-65
2022/03/17 08:00:05;;;;;;;16.38;10.85;;;10.30;99.90;;;;;;5033747;28;20226;-68
2022/03/17 08:02:31;;;;;;;14.43;9.65;;;10.30;99.90;;;;;;5033747;28;20186;-67
2022/03/17 08:04:56;;;;;;;16.27;10.20;;;10.30;99.90;;;;;;5033515;28;20190;-65
2022/03/17 08:07:22;;;;;;;15.20;11.37;;;10.40;99.90;;;;;;5033755;28;20209;-66
2022/03/17 08:09:48;;;;;;;19.00;13.27;;;10.30;99.90;;;;;;5033764;28;20177;-67
2022/03/17 08:12:14;;;;;;;17.93;12.93;;;10.20;99.90;;;;;;5022934;28;20444;-65
2022/03/17 08:14:40;;;;;;;22.27;12.00;;;10.20;99.90;;;;;;5017298;28;20198;-65
2022/03/17 08:17:06;;;;;;;13.07;10.67;;;10.20;99.90;;;;;;5014164;28;20186;-67
2022/03/17 08:19:31;;;;;;;12.10;10.80;;;10.20;99.90;;;;;;5013919;28;20210;-66
2022/03/17 08:21:58;;;;;;;21.60;12.10;;;10.20;99.90;;;;;;5013967;28;20453;-67
2022/03/17 08:24:24;;;;;;;17.75;12.73;;;10.30;99.90;;;;;;5013582;28;20179;-65
2022/03/17 08:26:51;;;;;;;18.33;12.40;;;10.30;99.90;;;;;;5025672;28;20174;-66
2022/03/17 08:29:17;;;;;;;15.90;11.63;;;10.30;99.90;;;;;;5033567;28;20503;-66
2022/03/17 08:31:42;;;;;;;15.63;11.70;;;10.30;99.90;;;;;;5033785;28;20170;-67
2022/03/17 08:34:08;;;;;;;12.87;10.87;;;10.30;99.90;;;;;;5033101;28;20528;-66
2022/03/17 08:36:34;;;;;;;18.70;11.53;;;10.30;99.90;;;;;;5033343;28;20166;-64
2022/03/17 08:38:59;;;;;;;18.50;12.33;;;10.20;99.90;;;;;;5033575;28;20174;-67
2022/03/17 08:41:25;;;;;;;17.33;11.77;;;10.30;99.90;;;;;;5022426;28;20174;-66
2022/03/17 08:43:53;;;;;;;15.13;11.77;;;10.30;99.90;;;;;;5013321;28;20174;-67
2022/03/17 08:49:22;;;;;;;16.17;12.30;;;10.50;99.90;;;;;;5013350;28;20209;-67
2022/03/17 08:51:51;;;;;;;19.85;11.68;;;10.50;99.90;;;;;;5011809;28;20175;-67
2022/03/17 08:54:18;;;;;;;12.27;9.77;;;10.60;99.90;;;;;;5012866;28;20169;-65
2022/03/17 08:56:43;;;;;;;14.85;10.48;;;10.60;99.90;;;;;;5013463;28;20241;-65
2022/03/17 08:59:10;;;;;;;13.23;11.60;;;10.70;99.90;;;;;;5013435;28;20258;-65
2022/03/17 09:01:37;;;;;;;17.40;12.02;;;10.80;99.90;;;;;;5012983;28;20194;-69
2022/03/17 09:04:03;;;;;;;17.90;11.32;;;10.80;99.90;;;;;;5012906;28;20189;-64
2022/03/17 09:06:29;;;;;;;17.17;12.80;;;10.80;99.90;;;;;;5013294;28;20170;-64
2022/03/17 09:08:55;;;;;;;13.63;11.80;;;10.80;99.90;;;;;;5013133;28;20252;-66
2022/03/17 09:11:20;;;;;;;16.43;12.07;;;10.70;99.90;;;;;;5026713;28;20685;-63
2022/03/17 09:13:48;;;;;;;15.13;11.17;;;10.80;99.90;;;;;;5032611;28;20166;-66
2022/03/17 09:16:13;;;;;;;16.15;10.98;;;10.80;99.90;;;;;;5032948;28;20247;-66
2022/03/17 09:18:42;;;;;;;15.87;11.70;;;10.90;99.90;;;;;;5033334;28;20537;-66
2022/03/17 09:21:09;;;;;;;15.73;11.90;;;11.00;99.90;;;;;;5032918;28;20274;-67
2022/03/17 09:23:34;;;;;;;21.15;13.13;;;11.00;99.90;;;;;;5032302;28;20644;-65
2022/03/17 09:26:00;;;;;;;18.53;13.47;;;11.10;99.90;;;;;;5018272;28;20307;-65
2022/03/17 09:28:27;;;;;;;20.00;11.50;;;11.10;99.90;;;;;;5013264;28;20195;-66
2022/03/17 09:30:54;;;;;;;16.88;11.15;;;11.20;99.90;;;;;;5013181;28;20410;-68
2022/03/17 09:33:22;;;;;;;15.75;11.38;;;11.20;99.90;;;;;;5012895;28;20333;-65
2022/03/17 09:35:48;;;;;;;16.10;11.15;;;11.20;99.90;;;;;;5013166;28;20198;-67
2022/03/17 09:38:14;;;;;;;17.60;11.53;;;11.30;99.90;;;;;;5013331;28;20769;-66
2022/03/17 09:40:39;;;;;;;20.50;12.60;;;11.40;99.90;;;;;;5026198;28;20189;-66
2022/03/17 09:43:22;;;;;;;20.83;13.10;;;11.40;99.90;;;;;;5032508;28;20249;-68
2022/03/17 09:45:55;;;;;;;20.38;13.00;;;11.40;99.90;;;;;;5032753;28;20182;-68
2022/03/17 09:48:24;;;;;;;18.52;12.43;;;11.50;99.90;;;;;;5031679;28;20213;-68
2022/03/17 09:50:57;;;;;;;17.70;13.60;;;11.50;99.90;;;;;;5032509;28;20178;-66
2022/03/17 09:53:26;;;;;;;24.75;13.18;;;11.40;99.90;;;;;;5032441;28;20674;-65
2022/03/17 09:55:52;;;;;;;18.50;11.33;;;11.40;99.90;;;;;;5032764;28;20588;-65
2022/03/17 09:58:19;;;;;;;19.42;12.38;;;11.50;99.90;;;;;;5033172;28;20437;-65
2022/03/17 10:00:48;;;;;;;18.85;12.52;;;11.50;99.90;;;;;;5033142;28;20174;-66
2022/03/17 10:03:29;;;;;;;14.90;11.88;;;11.60;99.90;;;;;;5033935;28;20205;-65
2022/03/17 10:05:57;;;;;;;21.30;12.60;;;11.60;99.90;;;;;;5016458;28;20195;-66
2022/03/17 10:08:26;;;;;;;19.50;13.90;;;11.60;99.90;;;;;;5016820;28;20454;-66
2022/03/17 10:10:52;;;;;;;20.88;12.52;;;11.60;99.90;;;;;;5016633;28;20401;-69
2022/03/17 10:13:25;;;;;;;22.67;14.73;;;11.70;99.90;;;;;;5016400;28;20167;-65
2022/03/17 10:16:08;;;;;;;20.70;14.18;;;11.70;99.90;;;;;;5016328;28;20570;-67
2022/03/17 10:18:37;;;;;;;20.10;13.87;;;11.70;99.90;;;;;;5020822;28;20176;-67
2022/03/17 10:21:06;;;;;;;39.17;24.77;;;11.90;99.90;;;;;;5035962;28;20403;-67
2022/03/17 10:23:33;;;;;;;19.20;12.43;;;11.90;99.90;;;;;;5035482;28;20441;-66
2022/03/17 10:25:59;;;;;;;16.70;12.10;;;12.10;99.90;;;;;;5035831;28;20594;-66
2022/03/17 10:28:28;;;;;;;15.70;12.07;;;12.20;99.90;;;;;;5036031;28;20481;-65
2022/03/17 10:31:04;;;;;;;19.60;12.20;;;12.20;99.90;;;;;;5035783;28;20378;-67
2022/03/17 10:33:30;;;;;;;21.57;13.43;;;12.20;99.90;;;;;;5034701;28;20865;-65
2022/03/17 10:36:15;;;;;;;19.70;13.23;;;12.20;99.90;;;;;;5035646;28;20427;-65
2022/03/17 10:38:43;;;;;;;17.23;13.17;;;12.20;99.90;;;;;;5035898;28;20166;-66
2022/03/17 10:41:12;;;;;;;27.40;15.03;;;12.30;99.90;;;;;;5035753;28;20380;-68
2022/03/17 10:43:43;;;;;;;19.88;12.77;;;12.30;99.90;;;;;;5035134;28;20904;-69
2022/03/17 10:46:16;;;;;;;22.00;14.03;;;12.40;99.90;;;;;;5035575;28;20555;-66
2022/03/17 10:49:00;;;;;;;16.43;13.53;;;12.40;99.90;;;;;;5023197;28;20529;-65
2022/03/17 10:51:44;;;;;;;23.60;13.43;;;12.40;99.90;;;;;;5015581;28;20902;-66
2022/03/17 10:54:20;;;;;;;20.30;15.00;;;12.50;99.90;;;;;;5014952;28;20404;-66
2022/03/17 10:57:02;;;;;;;19.10;13.60;;;12.50;99.90;;;;;;5015540;28;20765;-68
2022/03/17 10:59:42;;;;;;;16.93;12.73;;;12.60;99.90;;;;;;5015437;28;20721;-66
2022/03/17 11:02:10;;;;;;;23.17;13.40;;;12.60;99.90;;;;;;5016054;28;20428;-68
2022/03/17 11:04:37;;;;;;;18.20;12.77;;;12.70;99.90;;;;;;5032656;28;20908;-66
2022/03/17 11:07:11;;;;;;;18.70;12.30;;;12.70;99.90;;;;;;5035185;28;20390;-67
2022/03/17 11:09:40;;;;;;;19.83;14.77;;;12.80;99.90;;;;;;5035065;28;20428;-68
2022/03/17 11:12:10;;;;;;;20.87;13.10;;;12.80;99.90;;;;;;5033393;28;20419;-66
2022/03/17 11:14:50;;;;;;;14.20;11.57;;;12.90;99.90;;;;;;5034387;28;20746;-68
2022/03/17 11:17:26;;;;;;;15.20;12.43;;;12.90;99.90;;;;;;5029903;28;20918;-66
2022/03/17 11:19:53;;;;;;;20.10;14.33;;;13.00;99.90;;;;;;5014887;28;20427;-67
2022/03/17 11:22:22;;;;;;;14.17;11.53;;;13.00;99.90;;;;;;5014860;28;20512;-67
2022/03/17 11:25:23;;;;;;;19.53;13.60;;;13.00;99.90;;;;;;5014591;28;20432;-67
2022/03/17 11:27:50;;;;;;;19.80;13.27;;;13.00;99.90;;;;;;5014915;28;20517;-65
2022/03/17 11:30:17;;;;;;;14.50;11.93;;;13.10;99.90;;;;;;5014857;28;20448;-66
2022/03/17 11:33:01;;;;;;;18.60;13.90;;;13.20;99.90;;;;;;5024516;28;20830;-68
2022/03/17 11:35:32;;;;;;;21.70;15.33;;;13.20;99.90;;;;;;5034071;28;20455;-68
2022/03/17 11:38:37;;;;;;;20.10;15.67;;;13.20;99.90;;;;;;5034183;28;20880;-66
2022/03/17 11:41:14;;;;;;;19.17;13.47;;;13.20;99.90;;;;;;5034046;28;20431;-66
2022/03/17 11:43:45;;;;;;;16.30;13.57;;;13.30;99.90;;;;;;5034335;28;20430;-66
2022/03/17 11:46:19;;;;;;;19.37;12.73;;;13.30;99.90;;;;;;5034111;28;20538;-67
2022/03/17 11:48:47;;;;;;;14.97;10.47;;;13.30;99.90;;;;;;5014479;28;20461;-69
2022/03/17 11:51:15;;;;;;;14.60;12.17;;;13.30;99.90;;;;;;5014696;28;20409;-69
2022/03/17 11:53:50;;;;;;;24.60;13.10;;;13.20;99.90;;;;;;5014068;28;20429;-68
2022/03/17 11:56:47;;;;;;;15.40;13.27;;;13.20;99.90;;;;;;5026957;28;20438;-67
2022/03/17 11:59:19;;;;;;;17.00;13.77;;;13.10;99.90;;;;;;5034362;28;20447;-68
2022/03/17 12:01:47;;;;;;;17.63;11.93;;;12.90;99.90;;;;;;5034523;28;20420;-70
2022/03/17 12:04:30;;;;;;;16.77;12.57;;;12.80;99.90;;;;;;5037094;28;20882;-70
2022/03/17 12:07:13;;;;;;;15.70;13.00;;;12.80;99.90;;;;;;5035186;28;20439;-70
2022/03/17 12:09:39;;;;;;;18.70;13.40;;;12.80;99.90;;;;;;5034138;28;20420;-70
2022/03/17 12:12:25;;;;;;;16.80;13.03;;;12.80;99.90;;;;;;5034061;28;20397;-72
2022/03/17 12:14:54;;;;;;;19.03;11.53;;;12.70;99.90;;;;;;5033433;28;20437;-70
2022/03/17 12:17:22;;;;;;;13.93;10.57;;;12.70;99.90;;;;;;5033861;28;20469;-69
2022/03/17 12:20:07;;;;;;;18.50;14.97;;;12.60;99.90;;;;;;5033862;28;20499;-70
2022/03/17 12:22:39;;;;;;;18.77;13.33;;;12.50;99.90;;;;;;5033908;28;20793;-69
2022/03/17 12:25:18;;;;;;;20.93;14.87;;;12.40;99.90;;;;;;5024499;28;20781;-69
2022/03/17 12:27:51;;;;;;;18.60;12.53;;;12.40;99.90;;;;;;5014078;28;20451;-68
2022/03/17 12:30:18;;;;;;;20.90;14.00;;;12.30;99.90;;;;;;5012589;28;20846;-70
2022/03/17 12:32:55;;;;;;;22.33;14.80;;;12.30;99.90;;;;;;5013771;28;20416;-69
2022/03/17 12:35:24;;;;;;;20.73;13.07;;;12.20;99.90;;;;;;5013526;28;20423;-70
2022/03/17 12:37:57;;;;;;;22.33;15.37;;;12.20;99.90;;;;;;5013786;28;20390;-71
2022/03/17 12:40:22;;;;;;;20.17;14.63;;;12.20;99.90;;;;;;5016496;28;20447;-70
2022/03/17 12:42:50;;;;;;;21.90;14.13;;;12.20;99.90;;;;;;5013277;28;20416;-69
2022/03/17 12:45:18;;;;;;;17.97;13.37;;;12.20;99.90;;;;;;5013405;28;20590;-70
2022/03/17 12:47:58;;;;;;;16.40;12.43;;;12.20;99.90;;;;;;5013503;28;20526;-70
2022/03/17 12:50:28;;;;;;;19.33;14.00;;;12.30;99.90;;;;;;5013403;28;20414;-69